sensor_id;sensor_type;location;lat;lon;timestamp;P1;durP1;ratioP1;P2;durP2;ratioP2
6755;SDS011;3415;51.148;7.014;2023-03-01T00:00:51;9.50;;;4.75;;
6755;SDS011;3415;51.148;7.014;2023-03-01T00:03:18;6.40;;;3.95;;
6755;SDS011;3415;51.148;7.014;2023-03-01T00:05:46;10.03;;;5.07;;
6755;SDS011;3415;51.148;7.014;2023-03-01T00:08:13;10.23;;;5.57;;
6755;SDS011;3415;51.148;7.014;2023-03-01T00:10:40;10.63;;;4.20;;
6755;SDS011;3415;51.148;7.014;2023-03-01T00:13:07;7.40;;;4.20;;
6755;SDS011;3415;51.148;7.014;2023-03-01T00:15:37;6.50;;;4.10;;
6755;SDS011;3415;51.148;7.014;2023-03-01T00:18:04;8.73;;;4.80;;
6755;SDS011;3415;51.148;7.014;2023-03-01T00:20:31;8.73;;;4.20;;
6755;SDS011;3415;51.148;7.014;2023-03-01T00:22:59;9.70;;;4.40;;
6755;SDS011;3415;51.148;7.014;2023-03-01T00:25:26;7.93;;;4.13;;
6755;SDS011;3415;51.148;7.014;2023-03-01T00:27:53;9.60;;;4.57;;
6755;SDS011;3415;51.148;7.014;2023-03-01T00:30:20;10.70;;;4.77;;
6755;SDS011;3415;51.148;7.014;2023-03-01T00:32:47;9.07;;;3.63;;
6755;SDS011;3415;51.148;7.014;2023-03-01T00:35:13;6.33;;;3.80;;
6755;SDS011;3415;51.148;7.014;2023-03-01T00:37:40;8.73;;;4.30;;
6755;SDS011;3415;51.148;7.014;2023-03-01T00:40:09;7.63;;;3.53;;
6755;SDS011;3415;51.148;7.014;2023-03-01T00:42:37;8.98;;;4.40;;
6755;SDS011;3415;51.148;7.014;2023-03-01T00:45:04;18.98;;;4.45;;
6755;SDS011;3415;51.148;7.014;2023-03-01T00:47:32;5.93;;;3.80;;
6755;SDS011;3415;51.148;7.014;2023-03-01T00:49:59;7.70;;;4.30;;
6755;SDS011;3415;51.148;7.014;2023-03-01T00:52:26;10.10;;;4.63;;
6755;SDS011;3415;51.148;7.014;2023-03-01T00:54:53;8.07;;;3.83;;
6755;SDS011;3415;51.148;7.014;2023-03-01T00:57:21;8.50;;;4.73;;
6755;SDS011;3415;51.148;7.014;2023-03-01T00:59:48;10.10;;;4.60;;
6755;SDS011;3415;51.148;7.014;2023-03-01T01:02:17;12.13;;;5.07;;
6755;SDS011;3415;51.148;7.014;2023-03-01T01:04:44;8.40;;;4.47;;
6755;SDS011;3415;51.148;7.014;2023-03-01T01:07:10;8.57;;;4.40;;
6755;SDS011;3415;51.148;7.014;2023-03-01T01:09:38;9.93;;;4.00;;
6755;SDS011;3415;51.148;7.014;2023-03-01T01:12:05;6.17;;;3.80;;
6755;SDS011;3415;51.148;7.014;2023-03-01T01:14:33;7.07;;;4.30;;
6755;SDS011;3415;51.148;7.014;2023-03-01T01:17:00;7.17;;;4.33;;
6755;SDS011;3415;51.148;7.014;2023-03-01T01:19:27;7.27;;;4.60;;
6755;SDS011;3415;51.148;7.014;2023-03-01T01:21:54;7.20;;;4.43;;
6755;SDS011;3415;51.148;7.014;2023-03-01T01:24:21;10.00;;;4.15;;
6755;SDS011;3415;51.148;7.014;2023-03-01T01:26:48;5.33;;;3.77;;
6755;SDS011;3415;51.148;7.014;2023-03-01T01:29:15;8.90;;;4.00;;
6755;SDS011;3415;51.148;7.014;2023-03-01T01:31:43;8.50;;;3.70;;
6755;SDS011;3415;51.148;7.014;2023-03-01T01:34:12;8.73;;;4.20;;
6755;SDS011;3415;51.148;7.014;2023-03-01T01:36:41;6.03;;;3.47;;
6755;SDS011;3415;51.148;7.014;2023-03-01T01:39:08;8.60;;;4.40;;
6755;SDS011;3415;51.148;7.014;2023-03-01T01:41:38;8.50;;;3.93;;
6755;SDS011;3415;51.148;7.014;2023-03-01T01:44:10;7.80;;;3.70;;
6755;SDS011;3415;51.148;7.014;2023-03-01T01:46:40;11.70;;;4.30;;
6755;SDS011;3415;51.148;7.014;2023-03-01T01:49:12;7.77;;;4.33;;
6755;SDS011;3415;51.148;7.014;2023-03-01T01:51:45;9.35;;;4.40;;
6755;SDS011;3415;51.148;7.014;2023-03-01T01:54:15;7.30;;;4.13;;
6755;SDS011;3415;51.148;7.014;2023-03-01T01:56:47;12.10;;;5.00;;
6755;SDS011;3415;51.148;7.014;2023-03-01T01:59:18;9.18;;;4.25;;
6755;SDS011;3415;51.148;7.014;2023-03-01T02:01:49;8.70;;;4.43;;
6755;SDS011;3415;51.148;7.014;2023-03-01T02:04:17;5.33;;;3.70;;
6755;SDS011;3415;51.148;7.014;2023-03-01T02:06:46;11.57;;;4.53;;
6755;SDS011;3415;51.148;7.014;2023-03-01T02:09:19;8.40;;;4.40;;
6755;SDS011;3415;51.148;7.014;2023-03-01T02:11:48;12.13;;;4.67;;
6755;SDS011;3415;51.148;7.014;2023-03-01T02:14:16;10.10;;;5.00;;
6755;SDS011;3415;51.148;7.014;2023-03-01T02:16:43;8.90;;;4.50;;
6755;SDS011;3415;51.148;7.014;2023-03-01T02:19:13;8.63;;;4.80;;
6755;SDS011;3415;51.148;7.014;2023-03-01T02:21:50;11.23;;;5.18;;
6755;SDS011;3415;51.148;7.014;2023-03-01T02:24:28;10.20;;;4.50;;
6755;SDS011;3415;51.148;7.014;2023-03-01T02:27:03;10.60;;;5.20;;
6755;SDS011;3415;51.148;7.014;2023-03-01T02:29:32;10.50;;;4.60;;
6755;SDS011;3415;51.148;7.014;2023-03-01T02:31:59;11.93;;;4.90;;
6755;SDS011;3415;51.148;7.014;2023-03-01T02:34:27;9.43;;;4.77;;
6755;SDS011;3415;51.148;7.014;2023-03-01T02:36:57;13.40;;;5.27;;
6755;SDS011;3415;51.148;7.014;2023-03-01T02:39:28;11.77;;;5.07;;
6755;SDS011;3415;51.148;7.014;2023-03-01T02:42:00;11.10;;;5.30;;
6755;SDS011;3415;51.148;7.014;2023-03-01T02:44:28;8.90;;;4.80;;
6755;SDS011;3415;51.148;7.014;2023-03-01T02:46:56;9.43;;;4.70;;
6755;SDS011;3415;51.148;7.014;2023-03-01T02:49:27;11.93;;;5.90;;
6755;SDS011;3415;51.148;7.014;2023-03-01T02:52:01;10.60;;;4.80;;
6755;SDS011;3415;51.148;7.014;2023-03-01T02:54:39;11.13;;;5.33;;
6755;SDS011;3415;51.148;7.014;2023-03-01T02:57:07;9.40;;;4.90;;
6755;SDS011;3415;51.148;7.014;2023-03-01T02:59:35;11.60;;;5.27;;
6755;SDS011;3415;51.148;7.014;2023-03-01T03:02:07;14.30;;;4.50;;
6755;SDS011;3415;51.148;7.014;2023-03-01T03:04:45;8.13;;;4.33;;
6755;SDS011;3415;51.148;7.014;2023-03-01T03:07:12;7.40;;;4.30;;
6755;SDS011;3415;51.148;7.014;2023-03-01T03:09:39;10.00;;;4.33;;
6755;SDS011;3415;51.148;7.014;2023-03-01T03:12:06;9.87;;;4.50;;
6755;SDS011;3415;51.148;7.014;2023-03-01T03:14:32;8.10;;;4.57;;
6755;SDS011;3415;51.148;7.014;2023-03-01T03:17:00;12.10;;;5.60;;
6755;SDS011;3415;51.148;7.014;2023-03-01T03:19:32;9.47;;;5.10;;
6755;SDS011;3415;51.148;7.014;2023-03-01T03:21:59;10.80;;;5.30;;
6755;SDS011;3415;51.148;7.014;2023-03-01T03:24:26;9.57;;;5.00;;
6755;SDS011;3415;51.148;7.014;2023-03-01T03:27:02;14.13;;;5.53;;
6755;SDS011;3415;51.148;7.014;2023-03-01T03:29:29;13.03;;;4.83;;
6755;SDS011;3415;51.148;7.014;2023-03-01T03:31:56;10.07;;;5.63;;
6755;SDS011;3415;51.148;7.014;2023-03-01T03:34:23;12.15;;;5.85;;
6755;SDS011;3415;51.148;7.014;2023-03-01T03:36:53;13.10;;;5.70;;
6755;SDS011;3415;51.148;7.014;2023-03-01T03:39:21;11.32;;;5.07;;
6755;SDS011;3415;51.148;7.014;2023-03-01T03:41:48;7.20;;;4.30;;
6755;SDS011;3415;51.148;7.014;2023-03-01T03:44:15;13.03;;;6.00;;
6755;SDS011;3415;51.148;7.014;2023-03-01T03:46:42;7.00;;;4.30;;
6755;SDS011;3415;51.148;7.014;2023-03-01T03:49:09;10.17;;;5.37;;
6755;SDS011;3415;51.148;7.014;2023-03-01T03:51:35;11.73;;;5.90;;
6755;SDS011;3415;51.148;7.014;2023-03-01T03:54:04;15.33;;;6.20;;
6755;SDS011;3415;51.148;7.014;2023-03-01T03:56:31;9.43;;;5.17;;
6755;SDS011;3415;51.148;7.014;2023-03-01T03:58:58;8.17;;;5.37;;
6755;SDS011;3415;51.148;7.014;2023-03-01T04:01:24;12.47;;;5.40;;
6755;SDS011;3415;51.148;7.014;2023-03-01T04:03:51;13.77;;;5.50;;
6755;SDS011;3415;51.148;7.014;2023-03-01T04:06:19;8.40;;;5.13;;
6755;SDS011;3415;51.148;7.014;2023-03-01T04:08:46;10.57;;;5.57;;
6755;SDS011;3415;51.148;7.014;2023-03-01T04:11:17;21.13;;;5.97;;
6755;SDS011;3415;51.148;7.014;2023-03-01T04:13:54;17.03;;;6.70;;
6755;SDS011;3415;51.148;7.014;2023-03-01T04:16:23;11.00;;;5.57;;
6755;SDS011;3415;51.148;7.014;2023-03-01T04:18:50;10.60;;;5.20;;
6755;SDS011;3415;51.148;7.014;2023-03-01T04:21:19;9.73;;;5.43;;
6755;SDS011;3415;51.148;7.014;2023-03-01T04:23:46;13.87;;;6.40;;
6755;SDS011;3415;51.148;7.014;2023-03-01T04:26:13;10.87;;;5.20;;
6755;SDS011;3415;51.148;7.014;2023-03-01T04:28:41;10.45;;;6.13;;
6755;SDS011;3415;51.148;7.014;2023-03-01T04:31:11;9.73;;;5.40;;
6755;SDS011;3415;51.148;7.014;2023-03-01T04:33:40;11.43;;;5.40;;
6755;SDS011;3415;51.148;7.014;2023-03-01T04:36:08;8.93;;;5.00;;
6755;SDS011;3415;51.148;7.014;2023-03-01T04:38:37;14.67;;;5.83;;
6755;SDS011;3415;51.148;7.014;2023-03-01T04:41:04;14.57;;;5.83;;
6755;SDS011;3415;51.148;7.014;2023-03-01T04:43:32;17.07;;;5.00;;
6755;SDS011;3415;51.148;7.014;2023-03-01T04:46:01;10.53;;;4.70;;
6755;SDS011;3415;51.148;7.014;2023-03-01T04:48:29;12.20;;;5.37;;
6755;SDS011;3415;51.148;7.014;2023-03-01T04:50:56;11.63;;;5.60;;
6755;SDS011;3415;51.148;7.014;2023-03-01T04:53:24;17.73;;;6.13;;
6755;SDS011;3415;51.148;7.014;2023-03-01T04:55:51;12.73;;;6.00;;
6755;SDS011;3415;51.148;7.014;2023-03-01T04:58:19;10.40;;;5.20;;
6755;SDS011;3415;51.148;7.014;2023-03-01T05:00:46;14.98;;;6.40;;
6755;SDS011;3415;51.148;7.014;2023-03-01T05:03:14;10.90;;;5.07;;
6755;SDS011;3415;51.148;7.014;2023-03-01T05:05:43;11.53;;;6.27;;
6755;SDS011;3415;51.148;7.014;2023-03-01T05:08:12;14.43;;;5.13;;
6755;SDS011;3415;51.148;7.014;2023-03-01T05:10:43;11.50;;;4.90;;
6755;SDS011;3415;51.148;7.014;2023-03-01T05:13:11;11.90;;;5.60;;
6755;SDS011;3415;51.148;7.014;2023-03-01T05:15:40;10.90;;;6.27;;
6755;SDS011;3415;51.148;7.014;2023-03-01T05:18:07;9.93;;;5.60;;
6755;SDS011;3415;51.148;7.014;2023-03-01T05:20:37;13.33;;;5.90;;
6755;SDS011;3415;51.148;7.014;2023-03-01T05:23:04;19.10;;;5.70;;
6755;SDS011;3415;51.148;7.014;2023-03-01T05:25:32;11.70;;;5.93;;
6755;SDS011;3415;51.148;7.014;2023-03-01T05:28:00;8.73;;;5.50;;
6755;SDS011;3415;51.148;7.014;2023-03-01T05:30:29;12.55;;;6.13;;
6755;SDS011;3415;51.148;7.014;2023-03-01T05:32:57;17.07;;;5.47;;
6755;SDS011;3415;51.148;7.014;2023-03-01T05:35:24;12.33;;;6.17;;
6755;SDS011;3415;51.148;7.014;2023-03-01T05:37:53;13.07;;;6.37;;
6755;SDS011;3415;51.148;7.014;2023-03-01T05:40:21;9.07;;;5.30;;
6755;SDS011;3415;51.148;7.014;2023-03-01T05:42:49;12.60;;;5.20;;
6755;SDS011;3415;51.148;7.014;2023-03-01T05:45:19;13.03;;;5.87;;
6755;SDS011;3415;51.148;7.014;2023-03-01T05:47:47;11.50;;;5.77;;
6755;SDS011;3415;51.148;7.014;2023-03-01T05:50:15;13.57;;;5.53;;
6755;SDS011;3415;51.148;7.014;2023-03-01T05:52:45;12.27;;;6.20;;
6755;SDS011;3415;51.148;7.014;2023-03-01T05:55:14;11.73;;;5.27;;
6755;SDS011;3415;51.148;7.014;2023-03-01T05:57:42;16.33;;;6.05;;
6755;SDS011;3415;51.148;7.014;2023-03-01T06:00:10;14.67;;;5.37;;
6755;SDS011;3415;51.148;7.014;2023-03-01T06:02:38;14.30;;;5.80;;
6755;SDS011;3415;51.148;7.014;2023-03-01T06:05:06;13.97;;;5.40;;
6755;SDS011;3415;51.148;7.014;2023-03-01T06:07:34;12.40;;;5.73;;
6755;SDS011;3415;51.148;7.014;2023-03-01T06:10:01;11.88;;;6.30;;
6755;SDS011;3415;51.148;7.014;2023-03-01T06:12:31;14.97;;;6.07;;
6755;SDS011;3415;51.148;7.014;2023-03-01T06:14:58;11.53;;;5.43;;
6755;SDS011;3415;51.148;7.014;2023-03-01T06:17:26;12.13;;;5.83;;
6755;SDS011;3415;51.148;7.014;2023-03-01T06:19:55;9.00;;;5.40;;
6755;SDS011;3415;51.148;7.014;2023-03-01T06:22:22;15.00;;;6.80;;
6755;SDS011;3415;51.148;7.014;2023-03-01T06:24:49;12.93;;;5.22;;
6755;SDS011;3415;51.148;7.014;2023-03-01T06:27:16;13.53;;;5.50;;
6755;SDS011;3415;51.148;7.014;2023-03-01T06:29:44;11.15;;;5.65;;
6755;SDS011;3415;51.148;7.014;2023-03-01T06:32:11;12.40;;;5.87;;
6755;SDS011;3415;51.148;7.014;2023-03-01T06:34:38;11.30;;;5.75;;
6755;SDS011;3415;51.148;7.014;2023-03-01T06:37:05;13.93;;;5.83;;
6755;SDS011;3415;51.148;7.014;2023-03-01T06:39:32;12.63;;;5.72;;
6755;SDS011;3415;51.148;7.014;2023-03-01T06:42:00;12.80;;;5.37;;
6755;SDS011;3415;51.148;7.014;2023-03-01T06:44:26;13.67;;;7.10;;
6755;SDS011;3415;51.148;7.014;2023-03-01T06:46:55;12.00;;;5.13;;
6755;SDS011;3415;51.148;7.014;2023-03-01T06:49:22;13.30;;;5.97;;
6755;SDS011;3415;51.148;7.014;2023-03-01T06:51:48;10.70;;;4.93;;
6755;SDS011;3415;51.148;7.014;2023-03-01T06:54:15;12.10;;;6.03;;
6755;SDS011;3415;51.148;7.014;2023-03-01T06:56:42;11.53;;;6.17;;
6755;SDS011;3415;51.148;7.014;2023-03-01T06:59:12;9.50;;;5.77;;
6755;SDS011;3415;51.148;7.014;2023-03-01T07:01:39;17.17;;;5.93;;
6755;SDS011;3415;51.148;7.014;2023-03-01T07:04:07;12.93;;;5.73;;
6755;SDS011;3415;51.148;7.014;2023-03-01T07:06:34;12.15;;;5.60;;
6755;SDS011;3415;51.148;7.014;2023-03-01T07:09:01;13.37;;;6.27;;
6755;SDS011;3415;51.148;7.014;2023-03-01T07:11:27;11.17;;;5.60;;
6755;SDS011;3415;51.148;7.014;2023-03-01T07:13:54;12.97;;;7.10;;
6755;SDS011;3415;51.148;7.014;2023-03-01T07:16:21;8.32;;;4.72;;
6755;SDS011;3415;51.148;7.014;2023-03-01T07:18:48;10.63;;;6.13;;
6755;SDS011;3415;51.148;7.014;2023-03-01T07:21:16;10.55;;;4.85;;
6755;SDS011;3415;51.148;7.014;2023-03-01T07:23:43;13.67;;;6.27;;
6755;SDS011;3415;51.148;7.014;2023-03-01T07:26:13;13.07;;;5.80;;
6755;SDS011;3415;51.148;7.014;2023-03-01T07:28:39;18.40;;;6.23;;
6755;SDS011;3415;51.148;7.014;2023-03-01T07:31:06;12.87;;;6.03;;
6755;SDS011;3415;51.148;7.014;2023-03-01T07:33:33;10.80;;;5.93;;
6755;SDS011;3415;51.148;7.014;2023-03-01T07:36:00;10.67;;;5.80;;
6755;SDS011;3415;51.148;7.014;2023-03-01T07:38:30;13.70;;;6.50;;
6755;SDS011;3415;51.148;7.014;2023-03-01T07:40:57;14.07;;;6.73;;
6755;SDS011;3415;51.148;7.014;2023-03-01T07:43:25;12.57;;;5.87;;
6755;SDS011;3415;51.148;7.014;2023-03-01T07:45:52;11.30;;;5.50;;
6755;SDS011;3415;51.148;7.014;2023-03-01T07:48:19;14.70;;;5.87;;
6755;SDS011;3415;51.148;7.014;2023-03-01T07:50:46;12.90;;;6.77;;
6755;SDS011;3415;51.148;7.014;2023-03-01T07:53:13;12.60;;;7.50;;
6755;SDS011;3415;51.148;7.014;2023-03-01T07:55:41;13.90;;;6.73;;
6755;SDS011;3415;51.148;7.014;2023-03-01T07:58:08;13.90;;;5.43;;
6755;SDS011;3415;51.148;7.014;2023-03-01T08:00:35;13.60;;;6.53;;
6755;SDS011;3415;51.148;7.014;2023-03-01T08:03:02;12.27;;;5.53;;
6755;SDS011;3415;51.148;7.014;2023-03-01T08:05:29;9.93;;;5.47;;
6755;SDS011;3415;51.148;7.014;2023-03-01T08:07:56;14.83;;;6.70;;
6755;SDS011;3415;51.148;7.014;2023-03-01T08:10:23;13.30;;;6.27;;
6755;SDS011;3415;51.148;7.014;2023-03-01T08:12:52;13.33;;;6.10;;
6755;SDS011;3415;51.148;7.014;2023-03-01T08:15:19;16.37;;;6.60;;
6755;SDS011;3415;51.148;7.014;2023-03-01T08:17:48;13.53;;;7.30;;
6755;SDS011;3415;51.148;7.014;2023-03-01T08:20:16;11.13;;;6.97;;
6755;SDS011;3415;51.148;7.014;2023-03-01T08:22:43;14.47;;;6.33;;
6755;SDS011;3415;51.148;7.014;2023-03-01T08:25:10;11.17;;;6.20;;
6755;SDS011;3415;51.148;7.014;2023-03-01T08:27:37;11.67;;;6.20;;
6755;SDS011;3415;51.148;7.014;2023-03-01T08:30:06;14.43;;;5.87;;
6755;SDS011;3415;51.148;7.014;2023-03-01T08:32:37;8.85;;;5.40;;
6755;SDS011;3415;51.148;7.014;2023-03-01T08:35:05;8.60;;;5.63;;
6755;SDS011;3415;51.148;7.014;2023-03-01T08:37:32;11.30;;;5.37;;
6755;SDS011;3415;51.148;7.014;2023-03-01T08:39:59;12.93;;;6.83;;
6755;SDS011;3415;51.148;7.014;2023-03-01T08:42:28;10.20;;;5.63;;
6755;SDS011;3415;51.148;7.014;2023-03-01T08:44:55;11.27;;;6.60;;
6755;SDS011;3415;51.148;7.014;2023-03-01T08:47:23;10.20;;;6.00;;
6755;SDS011;3415;51.148;7.014;2023-03-01T08:49:51;13.20;;;5.50;;
6755;SDS011;3415;51.148;7.014;2023-03-01T08:52:18;11.00;;;5.75;;
6755;SDS011;3415;51.148;7.014;2023-03-01T08:54:46;8.50;;;5.60;;
6755;SDS011;3415;51.148;7.014;2023-03-01T08:57:13;10.30;;;5.77;;
6755;SDS011;3415;51.148;7.014;2023-03-01T08:59:40;12.07;;;7.37;;
6755;SDS011;3415;51.148;7.014;2023-03-01T09:02:10;8.10;;;5.37;;
6755;SDS011;3415;51.148;7.014;2023-03-01T09:04:40;10.07;;;5.70;;
6755;SDS011;3415;51.148;7.014;2023-03-01T09:07:07;9.53;;;6.17;;
6755;SDS011;3415;51.148;7.014;2023-03-01T09:09:35;9.07;;;5.87;;
6755;SDS011;3415;51.148;7.014;2023-03-01T09:12:03;7.80;;;5.77;;
6755;SDS011;3415;51.148;7.014;2023-03-01T09:14:30;11.17;;;6.43;;
6755;SDS011;3415;51.148;7.014;2023-03-01T09:16:57;9.43;;;5.10;;
6755;SDS011;3415;51.148;7.014;2023-03-01T09:19:27;8.80;;;5.70;;
6755;SDS011;3415;51.148;7.014;2023-03-01T09:21:56;10.07;;;5.83;;
6755;SDS011;3415;51.148;7.014;2023-03-01T09:24:23;9.73;;;5.53;;
6755;SDS011;3415;51.148;7.014;2023-03-01T09:26:52;7.60;;;5.07;;
6755;SDS011;3415;51.148;7.014;2023-03-01T09:29:21;9.07;;;6.03;;
6755;SDS011;3415;51.148;7.014;2023-03-01T09:31:49;10.05;;;6.07;;
6755;SDS011;3415;51.148;7.014;2023-03-01T09:34:16;8.13;;;5.53;;
6755;SDS011;3415;51.148;7.014;2023-03-01T09:36:48;7.90;;;5.60;;
6755;SDS011;3415;51.148;7.014;2023-03-01T09:39:16;9.00;;;6.30;;
6755;SDS011;3415;51.148;7.014;2023-03-01T09:41:54;9.97;;;6.23;;
6755;SDS011;3415;51.148;7.014;2023-03-01T09:44:30;9.57;;;5.23;;
6755;SDS011;3415;51.148;7.014;2023-03-01T09:47:01;15.73;;;6.03;;
6755;SDS011;3415;51.148;7.014;2023-03-01T09:49:29;10.77;;;6.63;;
6755;SDS011;3415;51.148;7.014;2023-03-01T09:52:00;9.47;;;6.10;;
6755;SDS011;3415;51.148;7.014;2023-03-01T09:54:34;10.07;;;5.37;;
6755;SDS011;3415;51.148;7.014;2023-03-01T09:57:12;11.03;;;6.60;;
6755;SDS011;3415;51.148;7.014;2023-03-01T09:59:48;12.67;;;6.10;;
6755;SDS011;3415;51.148;7.014;2023-03-01T10:02:30;10.23;;;6.00;;
6755;SDS011;3415;51.148;7.014;2023-03-01T10:05:05;10.97;;;6.30;;
6755;SDS011;3415;51.148;7.014;2023-03-01T10:07:46;9.27;;;6.50;;
6755;SDS011;3415;51.148;7.014;2023-03-01T10:10:23;8.70;;;6.10;;
6755;SDS011;3415;51.148;7.014;2023-03-01T10:12:54;10.07;;;6.23;;
6755;SDS011;3415;51.148;7.014;2023-03-01T10:15:25;9.20;;;5.50;;
6755;SDS011;3415;51.148;7.014;2023-03-01T10:18:00;9.90;;;5.83;;
6755;SDS011;3415;51.148;7.014;2023-03-01T10:20:33;9.07;;;6.03;;
6755;SDS011;3415;51.148;7.014;2023-03-01T10:23:09;8.83;;;6.00;;
6755;SDS011;3415;51.148;7.014;2023-03-01T10:25:42;7.53;;;5.60;;
6755;SDS011;3415;51.148;7.014;2023-03-01T10:28:16;9.87;;;6.57;;
6755;SDS011;3415;51.148;7.014;2023-03-01T10:30:45;10.77;;;5.80;;
6755;SDS011;3415;51.148;7.014;2023-03-01T10:33:15;9.53;;;5.73;;
6755;SDS011;3415;51.148;7.014;2023-03-01T10:35:45;9.60;;;6.10;;
6755;SDS011;3415;51.148;7.014;2023-03-01T10:38:12;8.97;;;5.63;;
6755;SDS011;3415;51.148;7.014;2023-03-01T10:40:50;13.70;;;6.37;;
6755;SDS011;3415;51.148;7.014;2023-03-01T10:43:19;11.30;;;5.80;;
6755;SDS011;3415;51.148;7.014;2023-03-01T10:45:47;9.57;;;5.57;;
6755;SDS011;3415;51.148;7.014;2023-03-01T10:48:15;12.83;;;6.70;;
6755;SDS011;3415;51.148;7.014;2023-03-01T10:50:45;7.93;;;4.97;;
6755;SDS011;3415;51.148;7.014;2023-03-01T10:53:20;8.57;;;6.33;;
6755;SDS011;3415;51.148;7.014;2023-03-01T10:55:57;14.60;;;6.23;;
6755;SDS011;3415;51.148;7.014;2023-03-01T10:58:26;9.70;;;5.87;;
6755;SDS011;3415;51.148;7.014;2023-03-01T11:00:54;8.20;;;5.83;;
6755;SDS011;3415;51.148;7.014;2023-03-01T11:03:23;8.47;;;5.83;;
6755;SDS011;3415;51.148;7.014;2023-03-01T11:05:52;8.90;;;6.20;;
6755;SDS011;3415;51.148;7.014;2023-03-01T11:08:35;7.10;;;5.07;;
6755;SDS011;3415;51.148;7.014;2023-03-01T11:13:57;8.30;;;5.33;;
6755;SDS011;3415;51.148;7.014;2023-03-01T11:16:27;8.10;;;5.03;;
6755;SDS011;3415;51.148;7.014;2023-03-01T11:18:58;10.60;;;5.47;;
6755;SDS011;3415;51.148;7.014;2023-03-01T11:21:28;10.53;;;6.40;;
6755;SDS011;3415;51.148;7.014;2023-03-01T11:23:58;8.63;;;5.63;;
6755;SDS011;3415;51.148;7.014;2023-03-01T11:26:30;7.47;;;5.33;;
6755;SDS011;3415;51.148;7.014;2023-03-01T11:29:02;9.50;;;6.37;;
6755;SDS011;3415;51.148;7.014;2023-03-01T11:31:33;8.97;;;5.40;;
6755;SDS011;3415;51.148;7.014;2023-03-01T11:34:03;9.03;;;6.07;;
6755;SDS011;3415;51.148;7.014;2023-03-01T11:36:35;7.10;;;5.60;;
6755;SDS011;3415;51.148;7.014;2023-03-01T11:39:12;9.80;;;5.43;;
6755;SDS011;3415;51.148;7.014;2023-03-01T11:41:48;9.73;;;5.90;;
6755;SDS011;3415;51.148;7.014;2023-03-01T11:44:20;10.13;;;5.70;;
6755;SDS011;3415;51.148;7.014;2023-03-01T11:46:56;9.23;;;5.57;;
6755;SDS011;3415;51.148;7.014;2023-03-01T11:49:46;8.23;;;5.63;;
6755;SDS011;3415;51.148;7.014;2023-03-01T11:52:28;12.60;;;5.70;;
6755;SDS011;3415;51.148;7.014;2023-03-01T11:55:08;10.10;;;5.20;;
6755;SDS011;3415;51.148;7.014;2023-03-01T11:57:50;9.50;;;5.73;;
6755;SDS011;3415;51.148;7.014;2023-03-01T12:00:42;8.53;;;5.73;;
6755;SDS011;3415;51.148;7.014;2023-03-01T12:03:25;8.53;;;5.47;;
6755;SDS011;3415;51.148;7.014;2023-03-01T12:08:58;10.60;;;5.63;;
6755;SDS011;3415;51.148;7.014;2023-03-01T12:11:39;8.00;;;4.93;;
6755;SDS011;3415;51.148;7.014;2023-03-01T12:14:23;7.97;;;5.13;;
6755;SDS011;3415;51.148;7.014;2023-03-01T12:17:11;7.87;;;5.50;;
6755;SDS011;3415;51.148;7.014;2023-03-01T12:20:11;8.20;;;5.27;;
6755;SDS011;3415;51.148;7.014;2023-03-01T12:22:50;7.70;;;4.60;;
6755;SDS011;3415;51.148;7.014;2023-03-01T12:25:31;6.97;;;4.83;;
6755;SDS011;3415;51.148;7.014;2023-03-01T12:28:12;6.60;;;4.43;;
6755;SDS011;3415;51.148;7.014;2023-03-01T12:34:01;10.00;;;5.83;;
6755;SDS011;3415;51.148;7.014;2023-03-01T12:36:39;8.70;;;4.97;;
6755;SDS011;3415;51.148;7.014;2023-03-01T12:39:22;6.70;;;4.50;;
6755;SDS011;3415;51.148;7.014;2023-03-01T12:42:10;10.67;;;4.53;;
6755;SDS011;3415;51.148;7.014;2023-03-01T12:45:01;6.80;;;4.70;;
6755;SDS011;3415;51.148;7.014;2023-03-01T12:47:50;8.67;;;4.80;;
6755;SDS011;3415;51.148;7.014;2023-03-01T12:50:36;7.00;;;4.60;;
6755;SDS011;3415;51.148;7.014;2023-03-01T12:53:07;10.63;;;5.80;;
6755;SDS011;3415;51.148;7.014;2023-03-01T12:55:45;8.83;;;5.23;;
6755;SDS011;3415;51.148;7.014;2023-03-01T12:58:16;17.73;;;5.57;;
6755;SDS011;3415;51.148;7.014;2023-03-01T13:00:53;8.83;;;4.90;;
6755;SDS011;3415;51.148;7.014;2023-03-01T13:03:32;5.90;;;4.03;;
6755;SDS011;3415;51.148;7.014;2023-03-01T13:06:23;7.67;;;4.83;;
6755;SDS011;3415;51.148;7.014;2023-03-01T13:08:58;7.20;;;4.23;;
6755;SDS011;3415;51.148;7.014;2023-03-01T13:11:34;10.23;;;4.73;;
6755;SDS011;3415;51.148;7.014;2023-03-01T13:17:03;11.03;;;4.87;;
6755;SDS011;3415;51.148;7.014;2023-03-01T13:19:31;8.20;;;4.53;;
6755;SDS011;3415;51.148;7.014;2023-03-01T13:22:01;7.73;;;4.53;;
6755;SDS011;3415;51.148;7.014;2023-03-01T13:25:11;7.07;;;4.70;;
6755;SDS011;3415;51.148;7.014;2023-03-01T13:27:41;8.87;;;4.80;;
6755;SDS011;3415;51.148;7.014;2023-03-01T13:36:06;11.70;;;4.87;;
6755;SDS011;3415;51.148;7.014;2023-03-01T13:38:36;11.03;;;4.63;;
6755;SDS011;3415;51.148;7.014;2023-03-01T13:41:06;9.40;;;5.10;;
6755;SDS011;3415;51.148;7.014;2023-03-01T13:43:34;7.63;;;4.40;;
6755;SDS011;3415;51.148;7.014;2023-03-01T13:46:07;10.93;;;5.03;;
6755;SDS011;3415;51.148;7.014;2023-03-01T13:48:36;7.83;;;4.87;;
6755;SDS011;3415;51.148;7.014;2023-03-01T13:51:07;7.23;;;4.70;;
6755;SDS011;3415;51.148;7.014;2023-03-01T13:53:36;7.13;;;4.27;;
6755;SDS011;3415;51.148;7.014;2023-03-01T13:56:07;8.60;;;4.80;;
6755;SDS011;3415;51.148;7.014;2023-03-01T13:58:44;10.52;;;5.15;;
6755;SDS011;3415;51.148;7.014;2023-03-01T14:01:25;9.43;;;5.03;;
6755;SDS011;3415;51.148;7.014;2023-03-01T14:03:54;9.30;;;4.60;;
6755;SDS011;3415;51.148;7.014;2023-03-01T14:06:23;7.10;;;4.15;;
6755;SDS011;3415;51.148;7.014;2023-03-01T14:08:52;5.60;;;3.90;;
6755;SDS011;3415;51.148;7.014;2023-03-01T14:11:45;8.23;;;4.65;;
6755;SDS011;3415;51.148;7.014;2023-03-01T14:14:44;6.30;;;3.80;;
6755;SDS011;3415;51.148;7.014;2023-03-01T14:17:18;10.30;;;4.70;;
6755;SDS011;3415;51.148;7.014;2023-03-01T14:20:16;10.07;;;4.50;;
6755;SDS011;3415;51.148;7.014;2023-03-01T14:22:48;6.77;;;4.47;;
6755;SDS011;3415;51.148;7.014;2023-03-01T14:25:23;8.03;;;4.50;;
6755;SDS011;3415;51.148;7.014;2023-03-01T14:27:54;9.93;;;5.30;;
6755;SDS011;3415;51.148;7.014;2023-03-01T14:30:25;8.20;;;4.27;;
6755;SDS011;3415;51.148;7.014;2023-03-01T14:32:53;13.00;;;4.38;;
6755;SDS011;3415;51.148;7.014;2023-03-01T14:35:23;8.23;;;4.60;;
6755;SDS011;3415;51.148;7.014;2023-03-01T14:37:53;10.40;;;4.70;;
6755;SDS011;3415;51.148;7.014;2023-03-01T14:40:21;7.77;;;4.10;;
6755;SDS011;3415;51.148;7.014;2023-03-01T14:42:50;9.53;;;4.23;;
6755;SDS011;3415;51.148;7.014;2023-03-01T14:45:18;9.10;;;4.30;;
6755;SDS011;3415;51.148;7.014;2023-03-01T14:47:45;7.33;;;4.10;;
6755;SDS011;3415;51.148;7.014;2023-03-01T14:50:19;6.83;;;3.90;;
6755;SDS011;3415;51.148;7.014;2023-03-01T14:52:54;8.13;;;4.60;;
6755;SDS011;3415;51.148;7.014;2023-03-01T14:55:25;6.83;;;4.80;;
6755;SDS011;3415;51.148;7.014;2023-03-01T14:57:56;8.50;;;4.13;;
6755;SDS011;3415;51.148;7.014;2023-03-01T15:00:24;9.93;;;4.00;;
6755;SDS011;3415;51.148;7.014;2023-03-01T15:02:53;10.57;;;4.47;;
6755;SDS011;3415;51.148;7.014;2023-03-01T15:05:23;5.03;;;3.03;;
6755;SDS011;3415;51.148;7.014;2023-03-01T15:07:55;11.33;;;4.50;;
6755;SDS011;3415;51.148;7.014;2023-03-01T15:10:24;9.20;;;3.80;;
6755;SDS011;3415;51.148;7.014;2023-03-01T15:12:52;5.25;;;3.53;;
6755;SDS011;3415;51.148;7.014;2023-03-01T15:15:30;8.33;;;3.40;;
6755;SDS011;3415;51.148;7.014;2023-03-01T15:17:59;6.67;;;3.80;;
6755;SDS011;3415;51.148;7.014;2023-03-01T15:20:28;7.27;;;3.93;;
6755;SDS011;3415;51.148;7.014;2023-03-01T15:23:02;8.20;;;4.63;;
6755;SDS011;3415;51.148;7.014;2023-03-01T15:25:30;9.60;;;4.23;;
6755;SDS011;3415;51.148;7.014;2023-03-01T15:27:58;6.67;;;4.03;;
6755;SDS011;3415;51.148;7.014;2023-03-01T15:30:27;7.37;;;4.03;;
6755;SDS011;3415;51.148;7.014;2023-03-01T15:33:18;11.40;;;3.50;;
6755;SDS011;3415;51.148;7.014;2023-03-01T15:35:53;5.57;;;3.70;;
6755;SDS011;3415;51.148;7.014;2023-03-01T15:38:26;6.83;;;3.70;;
6755;SDS011;3415;51.148;7.014;2023-03-01T15:40:55;12.00;;;3.83;;
6755;SDS011;3415;51.148;7.014;2023-03-01T15:43:43;6.63;;;4.23;;
6755;SDS011;3415;51.148;7.014;2023-03-01T15:46:17;4.93;;;3.30;;